Time;durP1;ratioP1;P1;durP2;ratioP2;P2;SDS_P1;SDS_P2;PMS_P1;PMS_P2;Temp;Humidity;BMP_temperature;BMP_pressure;BME280_temperature;BME280_humidity;BME280_pressure;Samples;Min_cycle;Max_cycle;Signal;HPM_P1;HPM_P2
2022/09/01 00:01:20;;;;;;;1.57;1.47;;;15.00;96.50;;;;;;5035731;28;20218;-82
2022/09/01 00:03:47;;;;;;;4.43;1.50;;;15.00;96.80;;;;;;5035464;28;20164;-82
2022/09/01 00:06:21;;;;;;;5.20;1.30;;;15.00;96.70;;;;;;5035715;28;20312;-82
2022/09/01 00:08:48;;;;;;;3.40;1.10;;;15.00;96.40;;;;;;5035141;28;20526;-82
2022/09/01 00:11:14;;;;;;;8.00;1.47;;;15.00;96.70;;;;;;5035451;28;20193;-82
2022/09/01 00:13:40;;;;;;;4.77;1.20;;;14.90;96.60;;;;;;5035384;28;20661;-82
2022/09/01 00:16:06;;;;;;;4.30;1.30;;;14.90;96.80;;;;;;5035080;28;20665;-82
2022/09/01 00:18:33;;;;;;;2.73;1.03;;;15.00;96.40;;;;;;5034851;28;20176;-82
2022/09/01 00:20:59;;;;;;;3.50;1.20;;;14.90;96.90;;;;;;5035651;28;20180;-82
2022/09/01 00:23:26;;;;;;;2.13;1.20;;;14.90;96.80;;;;;;5034694;28;20595;-82
2022/09/01 00:25:52;;;;;;;3.90;1.17;;;14.90;96.90;;;;;;5034439;28;20238;-82
2022/09/01 00:28:18;;;;;;;2.07;1.30;;;14.90;97.00;;;;;;5034158;28;20216;-82
2022/09/01 00:30:44;;;;;;;3.53;1.17;;;15.00;96.80;;;;;;5034052;28;20196;-82
2022/09/01 00:33:10;;;;;;;1.30;1.20;;;14.90;96.90;;;;;;5034044;28;20189;-82
2022/09/01 00:35:35;;;;;;;6.17;1.20;;;14.90;97.00;;;;;;5034377;28;20168;-82
2022/09/01 00:38:01;;;;;;;1.20;1.20;;;14.80;97.20;;;;;;5034501;28;20204;-82
2022/09/01 00:40:27;;;;;;;4.20;1.20;;;14.80;96.60;;;;;;5034529;28;20220;-82
2022/09/01 00:42:53;;;;;;;2.37;1.40;;;14.70;97.20;;;;;;5034129;28;20524;-81
2022/09/01 00:45:20;;;;;;;2.97;1.37;;;14.80;97.30;;;;;;5034221;28;20172;-82
2022/09/01 00:47:47;;;;;;;1.27;1.10;;;14.80;97.60;;;;;;5034118;28;20197;-82
2022/09/01 00:50:16;;;;;;;4.43;1.30;;;14.70;97.80;;;;;;5034594;28;20592;-82
2022/09/01 00:52:49;;;;;;;2.33;1.20;;;14.70;97.30;;;;;;5034231;28;20205;-82
2022/09/01 00:55:20;;;;;;;3.67;1.40;;;14.70;97.30;;;;;;5035207;28;20160;-82
2022/09/01 00:57:46;;;;;;;2.30;1.30;;;14.70;97.40;;;;;;5038607;28;20199;-82
2022/09/01 01:00:19;;;;;;;1.13;1.10;;;14.70;97.40;;;;;;5037818;28;20642;-82
2022/09/01 01:02:47;;;;;;;5.80;1.23;;;14.70;97.50;;;;;;5038283;28;20157;-82
2022/09/01 01:05:14;;;;;;;3.67;1.30;;;14.70;97.60;;;;;;5037798;28;20580;-82
2022/09/01 01:07:43;;;;;;;1.07;0.97;;;14.60;97.50;;;;;;5038224;28;20196;-82
2022/09/01 01:10:11;;;;;;;2.30;1.20;;;14.70;97.30;;;;;;5037760;28;20196;-82
2022/09/01 01:12:39;;;;;;;1.87;1.20;;;14.60;97.60;;;;;;5037673;28;20178;-82
2022/09/01 01:15:06;;;;;;;2.77;1.37;;;14.60;97.50;;;;;;5037484;28;20198;-82
2022/09/01 01:17:32;;;;;;;3.53;1.50;;;14.60;97.40;;;;;;5040316;28;20262;-82
2022/09/01 01:25:56;;;;;;;2.60;1.20;;;14.50;98.30;;;;;;5058381;28;20165;-82
2022/09/01 01:28:25;;;;;;;6.13;1.43;;;14.20;98.70;;;;;;5040451;28;20228;-82
2022/09/01 01:31:11;;;;;;;2.87;1.20;;;14.20;98.70;;;;;;5039795;28;20512;-82
2022/09/01 01:33:43;;;;;;;2.13;1.20;;;14.30;98.10;;;;;;5055888;28;20205;-82
2022/09/01 01:36:11;;;;;;;3.20;1.20;;;14.40;98.30;;;;;;5039432;28;20193;-82
2022/09/01 01:38:41;;;;;;;3.40;1.40;;;14.20;98.70;;;;;;5039400;28;20535;-82
2022/09/01 01:41:07;;;;;;;1.73;1.23;;;14.10;99.20;;;;;;5039181;28;20339;-82
2022/09/01 01:43:33;;;;;;;3.20;1.40;;;14.10;99.40;;;;;;5051915;28;20625;-82
2022/09/01 01:46:01;;;;;;;2.87;1.40;;;14.00;99.60;;;;;;5038008;28;20169;-82
2022/09/01 01:48:28;;;;;;;4.60;1.50;;;14.00;99.30;;;;;;5038956;28;20169;-82
2022/09/01 01:50:56;;;;;;;5.00;1.40;;;14.00;99.90;;;;;;5038803;28;20181;-82
2022/09/01 01:53:22;;;;;;;2.23;1.30;;;14.00;99.90;;;;;;5038299;28;20232;-83
2022/09/01 01:55:48;;;;;;;1.23;1.10;;;13.90;99.90;;;;;;5037450;28;20170;-82
2022/09/01 01:58:18;;;;;;;6.00;1.40;;;13.90;99.90;;;;;;5040008;28;20703;-82
2022/09/01 02:00:45;;;;;;;2.00;1.60;;;13.80;99.90;;;;;;5039021;28;20173;-82
2022/09/01 02:03:16;;;;;;;3.77;1.30;;;13.70;99.90;;;;;;5039361;28;20170;-82
2022/09/01 02:05:42;;;;;;;5.93;1.40;;;13.70;99.90;;;;;;5038621;28;20169;-82
2022/09/01 02:08:09;;;;;;;2.40;1.30;;;13.60;99.90;;;;;;5038678;28;20170;-82
2022/09/01 02:10:46;;;;;;;2.33;1.37;;;13.70;99.90;;;;;;5034919;28;20817;-81
2022/09/01 02:13:17;;;;;;;6.43;1.40;;;13.70;99.90;;;;;;5034811;28;20654;-82
2022/09/01 02:15:48;;;;;;;5.17;1.40;;;13.60;99.90;;;;;;5035297;28;20170;-82
2022/09/01 02:18:18;;;;;;;3.93;1.37;;;13.60;99.90;;;;;;5037652;28;20182;-82
2022/09/01 02:20:46;;;;;;;4.23;1.40;;;13.60;99.90;;;;;;5037127;28;20175;-82
2022/09/01 02:23:14;;;;;;;1.70;1.40;;;13.50;99.90;;;;;;5037158;28;20194;-82
2022/09/01 02:25:43;;;;;;;3.83;1.40;;;13.50;99.90;;;;;;5037043;28;20627;-82
2022/09/01 02:28:14;;;;;;;5.83;1.27;;;13.50;99.90;;;;;;5036954;28;20189;-83
2022/09/01 02:30:41;;;;;;;3.97;1.47;;;13.40;99.90;;;;;;5036888;28;20166;-82
2022/09/01 02:33:08;;;;;;;2.40;1.30;;;13.50;99.90;;;;;;5036602;28;20182;-82
2022/09/01 02:35:36;;;;;;;3.03;1.23;;;13.40;99.90;;;;;;5035228;28;20205;-82
2022/09/01 02:38:04;;;;;;;3.90;1.30;;;13.40;99.90;;;;;;5036322;28;20261;-82
2022/09/01 02:40:31;;;;;;;3.87;1.60;;;13.40;99.90;;;;;;5036807;28;20230;-82
2022/09/01 02:42:59;;;;;;;2.00;1.30;;;13.30;99.90;;;;;;5035807;28;20200;-82
2022/09/01 02:45:27;;;;;;;2.23;1.10;;;13.30;99.90;;;;;;5036051;28;20481;-82
2022/09/01 02:47:56;;;;;;;1.63;1.20;;;13.40;99.90;;;;;;5035649;28;20202;-82
2022/09/01 02:50:23;;;;;;;4.97;1.50;;;13.40;99.90;;;;;;5035958;28;20171;-82
2022/09/01 02:52:51;;;;;;;1.20;1.20;;;13.30;99.90;;;;;;5035594;28;20168;-82
2022/09/01 02:55:20;;;;;;;2.80;1.40;;;13.30;99.90;;;;;;5035680;28;20185;-82
2022/09/01 02:57:48;;;;;;;4.53;1.60;;;13.30;99.90;;;;;;5036004;28;20198;-82
2022/09/01 03:00:27;;;;;;;2.50;1.40;;;13.30;99.90;;;;;;5036346;28;20564;-82
2022/09/01 03:02:55;;;;;;;3.30;1.20;;;13.40;99.90;;;;;;5034589;28;20538;-82
2022/09/01 03:05:25;;;;;;;4.20;1.43;;;13.30;99.90;;;;;;5035515;28;20243;-82
2022/09/01 03:08:00;;;;;;;4.50;1.30;;;13.20;99.90;;;;;;5033761;28;20227;-82
2022/09/01 03:10:34;;;;;;;5.83;1.40;;;13.30;99.90;;;;;;5034236;28;20626;-82
2022/09/01 03:13:07;;;;;;;1.73;1.20;;;13.20;99.90;;;;;;5035465;28;20217;-82
2022/09/01 03:15:35;;;;;;;1.40;1.20;;;13.20;99.90;;;;;;5035138;28;20176;-82
2022/09/01 03:18:02;;;;;;;3.10;1.50;;;13.20;99.90;;;;;;5033125;28;20195;-82
2022/09/01 03:20:32;;;;;;;3.90;1.43;;;13.20;99.90;;;;;;5033808;28;20532;-82
2022/09/01 03:23:03;;;;;;;4.87;1.40;;;13.20;99.90;;;;;;5033657;28;20312;-82
2022/09/01 03:25:31;;;;;;;1.00;1.00;;;13.30;99.90;;;;;;5033775;28;20184;-82
2022/09/01 03:27:58;;;;;;;2.50;1.30;;;13.40;99.90;;;;;;5033628;28;20202;-82
2022/09/01 03:30:25;;;;;;;1.30;1.20;;;13.40;99.90;;;;;;5033715;28;20189;-82
2022/09/01 03:32:51;;;;;;;2.30;1.30;;;13.40;99.90;;;;;;5033623;28;20686;-82
2022/09/01 03:35:17;;;;;;;2.43;1.30;;;13.50;99.90;;;;;;5033592;28;20261;-82
2022/09/01 03:37:43;;;;;;;1.80;1.70;;;13.50;99.90;;;;;;5033791;28;20655;-82
2022/09/01 03:40:11;;;;;;;3.73;1.30;;;13.50;99.90;;;;;;5034898;28;20261;-82
2022/09/01 03:42:38;;;;;;;6.43;1.50;;;13.50;99.90;;;;;;5034228;28;20165;-82
2022/09/01 03:45:08;;;;;;;3.77;1.40;;;13.40;99.90;;;;;;5034149;28;20201;-82
2022/09/01 03:47:38;;;;;;;3.83;1.50;;;13.40;99.90;;;;;;5034591;28;20265;-82
2022/09/01 03:50:19;;;;;;;2.43;1.47;;;13.30;99.90;;;;;;5034332;28;20713;-82
2022/09/01 03:52:48;;;;;;;3.50;1.53;;;13.30;99.90;;;;;;5035297;28;20192;-82
2022/09/01 03:55:22;;;;;;;4.80;1.23;;;13.30;99.90;;;;;;5036528;28;20220;-82
2022/09/01 03:57:51;;;;;;;5.50;1.90;;;13.30;99.90;;;;;;5033217;28;20224;-82
2022/09/01 04:00:22;;;;;;;2.00;1.50;;;13.30;99.90;;;;;;5033371;28;20224;-82
2022/09/01 04:02:55;;;;;;;2.97;1.60;;;13.30;99.90;;;;;;5033384;28;20179;-82
2022/09/01 04:05:23;;;;;;;3.60;1.40;;;13.30;99.90;;;;;;5031774;28;20201;-82
2022/09/01 04:07:49;;;;;;;2.80;1.43;;;13.40;99.90;;;;;;5031371;28;20704;-82
2022/09/01 04:10:17;;;;;;;4.77;1.60;;;13.30;99.90;;;;;;5033320;28;20562;-82
2022/09/01 04:12:44;;;;;;;3.33;1.37;;;13.20;99.90;;;;;;5033130;28;20226;-82
2022/09/01 04:15:11;;;;;;;7.77;1.50;;;13.30;99.90;;;;;;5033178;28;20171;-82
2022/09/01 04:20:22;;;;;;;2.40;1.40;;;13.10;99.90;;;;;;5054617;28;20174;-82
2022/09/01 04:22:52;;;;;;;3.23;1.57;;;13.00;99.90;;;;;;5035911;28;20173;-82
2022/09/01 04:25:22;;;;;;;3.10;1.60;;;13.00;99.90;;;;;;5036059;28;20155;-82
2022/09/01 04:27:49;;;;;;;3.43;1.60;;;12.90;99.90;;;;;;5035846;28;20191;-82
2022/09/01 04:30:15;;;;;;;3.40;1.57;;;12.90;99.90;;;;;;5038691;28;20175;-82
2022/09/01 04:32:45;;;;;;;4.07;1.80;;;12.90;99.90;;;;;;5039409;28;20553;-82
2022/09/01 04:35:15;;;;;;;4.70;1.47;;;13.00;99.90;;;;;;5039783;28;20256;-82
2022/09/01 04:37:42;;;;;;;3.57;2.00;;;12.80;99.90;;;;;;5039259;28;20194;-82
2022/09/01 04:40:08;;;;;;;7.47;1.97;;;12.70;99.90;;;;;;5039122;28;20181;-82
2022/09/01 04:42:34;;;;;;;4.10;1.70;;;12.70;99.90;;;;;;5038449;28;20641;-82
2022/09/01 04:45:01;;;;;;;2.90;1.97;;;12.70;99.90;;;;;;5038587;28;20177;-82
2022/09/01 04:47:30;;;;;;;4.40;1.70;;;12.70;99.90;;;;;;5039002;28;20665;-82
2022/09/01 04:49:59;;;;;;;2.97;1.90;;;12.60;99.90;;;;;;5038589;28;20689;-82
2022/09/01 04:52:25;;;;;;;4.30;1.90;;;12.70;99.90;;;;;;5038608;28;20172;-82
2022/09/01 04:54:53;;;;;;;6.30;1.97;;;12.70;99.90;;;;;;5038629;28;20280;-82
2022/09/01 04:57:22;;;;;;;4.47;2.07;;;12.60;99.90;;;;;;5038881;28;20194;-82
2022/09/01 04:59:48;;;;;;;8.93;2.07;;;12.50;99.90;;;;;;5038199;28;20307;-82
2022/09/01 05:02:15;;;;;;;4.97;2.43;;;12.60;99.90;;;;;;5038657;28;20211;-82
2022/09/01 05:04:45;;;;;;;4.07;2.60;;;12.60;99.90;;;;;;5039164;28;20216;-82
2022/09/01 05:07:13;;;;;;;3.73;2.13;;;12.70;99.90;;;;;;5038639;28;20192;-82
2022/09/01 05:09:39;;;;;;;3.37;1.90;;;12.70;99.90;;;;;;5039026;28;20180;-82
2022/09/01 05:12:14;;;;;;;4.83;1.90;;;12.70;99.90;;;;;;5038369;28;20166;-82
2022/09/01 05:14:42;;;;;;;2.30;2.10;;;12.60;99.90;;;;;;5036874;28;20185;-82
2022/09/01 05:17:12;;;;;;;7.93;1.93;;;12.60;99.90;;;;;;5037134;28;20197;-82
2022/09/01 05:19:46;;;;;;;8.77;3.77;;;12.70;99.90;;;;;;5037405;28;20166;-82
2022/09/01 05:22:14;;;;;;;5.23;1.97;;;12.60;99.90;;;;;;5037905;28;20538;-82
2022/09/01 05:24:40;;;;;;;3.93;2.00;;;12.60;99.90;;;;;;5038597;28;20171;-82
2022/09/01 05:27:07;;;;;;;9.13;1.80;;;12.60;99.90;;;;;;5040788;28;20189;-82
2022/09/01 05:29:37;;;;;;;8.33;2.00;;;12.70;99.90;;;;;;5041352;28;20220;-82
2022/09/01 05:32:07;;;;;;;6.70;2.20;;;12.90;99.90;;;;;;5041582;28;20596;-83
2022/09/01 05:34:36;;;;;;;3.37;2.20;;;12.90;99.90;;;;;;5039786;28;20215;-82
2022/09/01 05:37:02;;;;;;;6.80;2.40;;;12.90;99.90;;;;;;5041430;28;20192;-82
2022/09/01 05:39:28;;;;;;;3.77;2.00;;;12.90;99.90;;;;;;5040738;28;20322;-84
2022/09/01 05:41:54;;;;;;;6.10;1.97;;;13.00;99.90;;;;;;5037993;28;20207;-84
2022/09/01 05:44:24;;;;;;;5.07;2.00;;;13.00;99.90;;;;;;5039356;28;20169;-83
2022/09/01 05:46:50;;;;;;;6.63;2.27;;;13.20;99.90;;;;;;5037540;28;20194;-83
2022/09/01 05:49:17;;;;;;;6.80;2.77;;;13.30;99.90;;;;;;5039081;28;20187;-83
2022/09/01 05:51:51;;;;;;;4.90;2.17;;;13.40;99.90;;;;;;5039356;28;20173;-84
2022/09/01 05:54:24;;;;;;;5.67;2.63;;;13.70;99.90;;;;;;5038233;28;20192;-83
2022/09/01 05:56:52;;;;;;;8.03;2.20;;;13.90;99.90;;;;;;5037438;28;20230;-84
2022/09/01 05:59:19;;;;;;;4.33;1.73;;;14.10;99.90;;;;;;5038428;28;20178;-84
2022/09/01 06:01:46;;;;;;;9.80;2.10;;;14.30;99.90;;;;;;5037670;28;20203;-84
2022/09/01 06:04:12;;;;;;;3.63;1.50;;;14.50;99.90;;;;;;5038500;28;20176;-84
2022/09/01 06:06:45;;;;;;;2.30;1.40;;;14.70;99.90;;;;;;5041401;28;20283;-84
2022/09/01 06:09:12;;;;;;;2.47;1.70;;;14.90;99.90;;;;;;5043426;28;20162;-84
2022/09/01 06:11:39;;;;;;;4.97;1.73;;;15.10;99.90;;;;;;5041756;28;20272;-85
2022/09/01 06:14:07;;;;;;;5.57;1.90;;;15.50;99.90;;;;;;5042842;28;20669;-85
2022/09/01 06:16:34;;;;;;;5.60;1.40;;;16.00;99.90;;;;;;5041594;28;20196;-85
2022/09/01 06:19:03;;;;;;;5.80;1.50;;;16.30;99.90;;;;;;5042051;28;20169;-85
2022/09/01 06:21:30;;;;;;;1.47;1.27;;;16.60;99.90;;;;;;5041907;28;20182;-82
2022/09/01 06:23:57;;;;;;;3.60;1.77;;;16.80;99.90;;;;;;5043287;28;20184;-82
2022/09/01 06:26:31;;;;;;;2.50;1.70;;;17.00;99.90;;;;;;5043069;28;20251;-82
2022/09/01 06:29:02;;;;;;;2.03;1.33;;;17.40;98.90;;;;;;5042323;28;20181;-84
2022/09/01 06:31:32;;;;;;;5.80;1.60;;;17.20;99.00;;;;;;5043475;28;20177;-85
2022/09/01 06:34:01;;;;;;;3.90;1.63;;;17.90;98.90;;;;;;5043845;28;20193;-84
2022/09/01 06:36:27;;;;;;;3.65;1.60;;;17.90;98.50;;;;;;5043722;28;20260;-84
2022/09/01 06:38:54;;;;;;;6.70;1.63;;;18.20;97.90;;;;;;5044184;28;20174;-85
2022/09/01 06:41:22;;;;;;;5.88;1.30;;;18.50;97.70;;;;;;5043122;28;20188;-85
2022/09/01 06:43:49;;;;;;;6.82;1.55;;;18.20;97.60;;;;;;5043658;28;20173;-83
2022/09/01 06:46:16;;;;;;;4.20;1.60;;;18.70;97.60;;;;;;5044205;28;20250;-84
2022/09/01 06:48:45;;;;;;;2.28;1.50;;;19.30;96.30;;;;;;5042508;28;20184;-85
2022/09/01 06:51:19;;;;;;;2.25;1.42;;;19.90;96.10;;;;;;5041688;28;20177;-84
2022/09/01 06:53:50;;;;;;;6.13;1.60;;;19.20;96.30;;;;;;5039069;28;20192;-84
2022/09/01 06:56:17;;;;;;;4.30;1.40;;;19.80;96.10;;;;;;5041625;28;20193;-85
2022/09/01 06:58:47;;;;;;;4.93;1.65;;;20.20;95.60;;;;;;5041959;28;20193;-84
2022/09/01 07:01:16;;;;;;;5.95;1.50;;;20.00;95.40;;;;;;5041702;28;20169;-85
2022/09/01 07:03:44;;;;;;;1.60;1.33;;;20.00;95.60;;;;;;5042460;28;20211;-85
2022/09/01 07:06:11;;;;;;;4.97;1.40;;;20.60;95.60;;;;;;5040123;28;20284;-84
2022/09/01 07:08:38;;;;;;;4.03;1.30;;;20.30;94.70;;;;;;5040786;28;20177;-84
2022/09/01 07:11:07;;;;;;;3.58;1.55;;;20.40;94.60;;;;;;5040474;28;20177;-85
2022/09/01 07:13:34;;;;;;;4.63;1.52;;;20.20;94.70;;;;;;5039343;28;20189;-83
2022/09/01 07:16:03;;;;;;;2.55;1.35;;;20.90;94.50;;;;;;5038335;28;20705;-84
2022/09/01 07:18:30;;;;;;;3.95;1.30;;;20.90;94.30;;;;;;5038686;28;20255;-83
2022/09/01 07:20:56;;;;;;;6.10;1.60;;;20.80;94.20;;;;;;5038932;28;20265;-85
2022/09/01 07:23:24;;;;;;;3.45;1.45;;;21.40;93.30;;;;;;5038219;28;20256;-84
2022/09/01 07:25:54;;;;;;;1.40;1.15;;;21.40;94.00;;;;;;5035213;28;20181;-81
2022/09/01 07:28:22;;;;;;;4.65;1.42;;;21.80;93.40;;;;;;5039242;28;20169;-84
2022/09/01 07:30:51;;;;;;;2.65;1.33;;;22.00;93.00;;;;;;5041119;28;20174;-84
2022/09/01 07:33:23;;;;;;;2.30;1.50;;;21.80;92.50;;;;;;5039494;28;20220;-85
2022/09/01 07:35:54;;;;;;;2.03;1.42;;;21.70;92.40;;;;;;5038668;28;20648;-84
2022/09/01 07:38:21;;;;;;;3.28;1.30;;;21.80;92.80;;;;;;5034943;28;20222;-83
2022/09/01 07:40:47;;;;;;;5.95;1.40;;;22.20;92.30;;;;;;5034761;28;20192;-83
2022/09/01 07:43:26;;;;;;;3.25;1.40;;;23.20;92.60;;;;;;5034572;28;20520;-85
2022/09/01 07:45:58;;;;;;;4.40;1.40;;;22.90;91.50;;;;;;5035742;28;20169;-84
2022/09/01 07:48:26;;;;;;;8.13;1.42;;;22.90;90.80;;;;;;5034655;28;20173;-83
2022/09/01 07:50:56;;;;;;;2.47;1.30;;;22.10;91.20;;;;;;5034358;28;20641;-83
2022/09/01 07:53:31;;;;;;;4.05;1.73;;;22.50;91.50;;;;;;5037228;28;20268;-85
2022/09/01 07:56:00;;;;;;;2.67;1.52;;;23.30;91.40;;;;;;5035232;28;20264;-83
2022/09/01 07:58:28;;;;;;;7.68;1.67;;;23.80;90.60;;;;;;5034719;28;20170;-84
2022/09/01 08:00:55;;;;;;;7.32;1.42;;;23.40;91.20;;;;;;5034608;28;20177;-83
2022/09/01 08:03:24;;;;;;;3.28;1.25;;;23.20;90.10;;;;;;5036268;28;20185;-83
2022/09/01 08:05:56;;;;;;;5.18;1.38;;;23.80;89.80;;;;;;5033357;28;20180;-84
2022/09/01 08:08:23;;;;;;;4.55;1.20;;;24.20;89.30;;;;;;5034684;28;20223;-85
2022/09/01 08:10:48;;;;;;;5.57;1.70;;;24.00;90.50;;;;;;5034060;28;20188;-83
2022/09/01 08:13:15;;;;;;;3.53;1.40;;;24.50;89.70;;;;;;5034302;28;20697;-84
2022/09/01 08:15:41;;;;;;;3.35;1.33;;;24.50;88.90;;;;;;5033289;28;20528;-83
2022/09/01 08:18:08;;;;;;;1.63;1.30;;;24.10;89.30;;;;;;5034173;28;20284;-83
2022/09/01 08:20:38;;;;;;;4.43;1.30;;;24.40;88.60;;;;;;5035095;28;20161;-83
2022/09/01 08:23:05;;;;;;;5.82;1.35;;;24.20;88.40;;;;;;5034613;28;20161;-84
2022/09/01 08:25:34;;;;;;;1.70;1.23;;;24.40;88.80;;;;;;5035342;28;20239;-83
2022/09/01 08:28:01;;;;;;;1.90;1.38;;;24.10;89.70;;;;;;5034604;28;20239;-84
2022/09/01 08:30:28;;;;;;;34.55;3.30;;;24.80;88.30;;;;;;5033974;28;20170;-82
2022/09/01 08:32:54;;;;;;;5.07;1.40;;;25.00;87.10;;;;;;5034056;28;20173;-81
2022/09/01 08:35:20;;;;;;;3.03;1.23;;;24.10;87.00;;;;;;5034807;28;20189;-81
2022/09/01 08:37:45;;;;;;;1.23;1.15;;;24.80;86.80;;;;;;5036447;28;20195;-83
2022/09/01 08:40:16;;;;;;;4.82;1.27;;;24.10;86.20;;;;;;5037823;28;20201;-84
2022/09/01 08:43:23;;;;;;;2.25;1.20;;;25.60;86.80;;;;;;5037782;28;20162;-83
2022/09/01 08:45:53;;;;;;;5.40;1.40;;;25.80;84.70;;;;;;5037596;28;20165;-84
2022/09/01 08:48:33;;;;;;;2.15;1.40;;;25.10;84.40;;;;;;5037835;28;20197;-83
2022/09/01 08:51:09;;;;;;;1.38;1.27;;;25.50;85.70;;;;;;5038335;28;20177;-81
2022/09/01 08:53:52;;;;;;;2.40;1.27;;;25.30;84.30;;;;;;5036313;28;20235;-81
2022/09/01 08:56:18;;;;;;;4.43;1.70;;;25.20;85.00;;;;;;5037276;28;20601;-79
2022/09/01 08:58:44;;;;;;;2.25;1.33;;;25.00;84.10;;;;;;5036882;28;20367;-81
2022/09/01 09:01:26;;;;;;;3.20;1.30;;;26.00;83.30;;;;;;5037679;28;20174;-81
2022/09/01 09:04:19;;;;;;;3.45;1.42;;;25.90;82.60;;;;;;5036231;28;20642;-81
2022/09/01 09:07:11;;;;;;;2.88;1.10;;;25.40;83.10;;;;;;5035252;28;20197;-81
2022/09/01 09:09:49;;;;;;;1.48;1.15;;;24.80;82.70;;;;;;4989053;28;20247;-80
2022/09/01 09:12:28;;;;;;;4.45;1.30;;;25.10;81.50;;;;;;5032604;28;20268;-80
2022/09/01 09:15:10;;;;;;;1.35;1.30;;;25.00;82.30;;;;;;5034136;28;20323;-81
2022/09/01 09:17:44;;;;;;;1.70;1.23;;;25.10;83.30;;;;;;5037635;28;20557;-81
2022/09/01 09:20:09;;;;;;;2.03;1.10;;;25.40;81.00;;;;;;5036187;28;20219;-82
2022/09/01 09:22:35;;;;;;;3.47;1.38;;;24.60;82.10;;;;;;5035594;28;20181;-81
2022/09/01 09:25:03;;;;;;;3.45;1.08;;;25.30;81.10;;;;;;5037379;28;20180;-81
2022/09/01 09:27:36;;;;;;;19.90;2.05;;;25.10;81.20;;;;;;5036256;28;20196;-81
2022/09/01 09:30:07;;;;;;;5.88;1.10;;;25.80;80.10;;;;;;5034575;28;20165;-81
2022/09/01 09:32:50;;;;;;;1.55;1.10;;;25.50;79.80;;;;;;5035142;28;20169;-80
2022/09/01 09:35:25;;;;;;;2.58;1.10;;;24.80;79.60;;;;;;5035302;28;20207;-81
2022/09/01 09:37:52;;;;;;;1.63;1.02;;;25.00;80.90;;;;;;5035326;28;20195;-82
2022/09/01 09:40:25;;;;;;;1.40;1.10;;;25.90;79.80;;;;;;5035827;28;20227;-82
2022/09/01 09:42:54;;;;;;;4.75;1.20;;;26.00;79.20;;;;;;5035915;28;20169;-81
2022/09/01 09:45:26;;;;;;;5.18;1.20;;;26.20;80.10;;;;;;5036972;28;20535;-82
2022/09/01 09:47:56;;;;;;;1.40;1.23;;;25.90;81.20;;;;;;5054472;28;20189;-82
2022/09/01 09:50:44;;;;;;;7.22;1.30;;;25.70;78.50;;;;;;5036441;28;20165;-81
2022/09/01 09:53:10;;;;;;;2.40;1.20;;;25.60;79.60;;;;;;5035468;28;20425;-82
2022/09/01 09:55:48;;;;;;;6.75;1.50;;;25.60;80.90;;;;;;5036439;28;20170;-82
2022/09/01 09:58:14;;;;;;;1.20;1.10;;;25.30;80.80;;;;;;5036398;28;20227;-82
2022/09/01 10:00:56;;;;;;;4.85;1.25;;;25.70;80.30;;;;;;5036332;28;20556;-82
2022/09/01 10:03:37;;;;;;;4.63;1.40;;;25.00;80.00;;;;;;5035979;28;20177;-81
2022/09/01 10:06:03;;;;;;;1.23;1.00;;;24.40;81.70;;;;;;5036385;28;20527;-81
2022/09/01 10:08:33;;;;;;;1.40;1.30;;;24.50;81.40;;;;;;5036830;28;20200;-81
2022/09/01 10:10:59;;;;;;;3.20;1.25;;;24.50;81.40;;;;;;5039925;28;20177;-81
2022/09/01 10:13:28;;;;;;;16.42;1.60;;;25.60;82.40;;;;;;5041193;28;20201;-82
2022/09/01 10:15:56;;;;;;;3.28;1.40;;;24.70;80.60;;;;;;5040902;28;20170;-82
2022/09/01 10:18:25;;;;;;;4.97;1.30;;;24.40;82.10;;;;;;5041429;28;20176;-82
2022/09/01 10:21:15;;;;;;;2.47;1.30;;;24.20;81.20;;;;;;5040488;28;20165;-81
2022/09/01 10:23:42;;;;;;;4.80;1.20;;;24.80;81.90;;;;;;5040413;28;20189;-82
2022/09/01 10:26:10;;;;;;;4.88;1.38;;;24.90;79.50;;;;;;5040758;28;20280;-83
2022/09/01 10:29:01;;;;;;;2.92;1.30;;;25.10;78.50;;;;;;5039985;28;20235;-82
2022/09/01 10:31:28;;;;;;;3.20;1.27;;;25.30;78.30;;;;;;5040403;28;20169;-82
2022/09/01 10:33:54;;;;;;;2.47;1.25;;;24.60;80.10;;;;;;5039003;28;20244;-82
2022/09/01 10:36:21;;;;;;;1.55;1.23;;;25.30;80.60;;;;;;5036685;28;20554;-82
2022/09/01 10:38:47;;;;;;;6.70;1.27;;;26.40;77.00;;;;;;5039096;28;20185;-82
2022/09/01 10:41:52;;;;;;;7.10;1.48;;;26.50;75.80;;;;;;5037061;28;20647;-82
2022/09/01 10:45:07;;;;;;;4.38;1.40;;;26.70;75.50;;;;;;5038083;28;20319;-81
2022/09/01 10:47:36;;;;;;;3.05;1.30;;;26.40;76.90;;;;;;5023966;28;20205;-82
2022/09/01 10:50:21;;;;;;;3.60;1.35;;;25.30;78.50;;;;;;5041992;28;20170;-82
2022/09/01 10:52:47;;;;;;;6.20;1.38;;;25.90;79.80;;;;;;5041345;28;20180;-81
2022/09/01 10:55:23;;;;;;;2.78;1.20;;;26.20;78.20;;;;;;5041108;28;20201;-81
2022/09/01 10:57:58;;;;;;;15.45;1.70;;;25.70;78.30;;;;;;5041169;28;20193;-82
2022/09/01 11:00:24;;;;;;;4.32;1.10;;;25.50;79.00;;;;;;5041327;28;20180;-81
2022/09/01 11:03:12;;;;;;;13.93;1.90;;;25.40;80.10;;;;;;5040505;28;20189;-82
2022/09/01 11:05:53;;;;;;;5.30;1.30;;;24.10;79.30;;;;;;5041276;28;20203;-82
2022/09/01 11:08:28;;;;;;;4.13;1.30;;;24.40;80.20;;;;;;5058417;28;20172;-82
2022/09/01 11:11:02;;;;;;;2.13;1.02;;;24.60;80.80;;;;;;5040807;28;20572;-82
2022/09/01 11:13:47;;;;;;;3.15;1.30;;;25.20;79.10;;;;;;5039536;28;20199;-82
2022/09/01 11:16:31;;;;;;;1.80;1.30;;;25.10;79.60;;;;;;5038540;28;20216;-82
2022/09/01 11:19:16;;;;;;;2.28;1.30;;;23.90;80.50;;;;;;5038862;28;20157;-80
2022/09/01 11:21:43;;;;;;;1.40;1.20;;;23.80;80.40;;;;;;5038029;28;20165;-81
2022/09/01 11:24:37;;;;;;;6.60;1.38;;;24.60;80.20;;;;;;5038954;28;20260;-81
2022/09/01 11:27:04;;;;;;;4.20;1.30;;;24.90;78.50;;;;;;5057244;28;20193;-82
2022/09/01 11:29:51;;;;;;;2.17;1.10;;;24.40;79.20;;;;;;5039199;28;20629;-81
2022/09/01 11:32:19;;;;;;;1.90;1.10;;;24.40;79.80;;;;;;5037763;28;20261;-81
2022/09/01 11:34:47;;;;;;;4.95;1.73;;;25.10;78.30;;;;;;5038418;28;20265;-81
2022/09/01 11:37:20;;;;;;;1.33;1.20;;;24.60;78.90;;;;;;5038923;28;20197;-81
2022/09/01 11:39:57;;;;;;;4.30;1.40;;;24.20;79.80;;;;;;5038342;28;20208;-81
2022/09/01 11:42:25;;;;;;;2.88;1.27;;;24.40;78.80;;;;;;5038790;28;20211;-83
2022/09/01 11:44:56;;;;;;;1.20;1.10;;;24.60;78.30;;;;;;5040274;28;20638;-82
2022/09/01 11:47:37;;;;;;;2.13;1.27;;;24.60;79.10;;;;;;5039970;28;20197;-82
2022/09/01 11:50:15;;;;;;;5.45;1.48;;;25.10;78.70;;;;;;5039992;28;20181;-81
2022/09/01 11:52:41;;;;;;;1.48;1.38;;;25.50;76.80;;;;;;5040332;28;20248;-82
2022/09/01 11:55:09;;;;;;;2.00;1.40;;;24.80;77.50;;;;;;5040510;28;20205;-81
2022/09/01 11:57:39;;;;;;;5.38;1.45;;;24.80;78.20;;;;;;5040492;28;20200;-81
2022/09/01 12:00:13;;;;;;;5.85;1.48;;;25.60;76.60;;;;;;5039142;28;20169;-81
2022/09/01 12:02:50;;;;;;;4.80;1.60;;;26.70;75.10;;;;;;5039902;28;20644;-81
2022/09/01 12:05:39;;;;;;;5.40;1.30;;;29.20;71.50;;;;;;5039036;28;20204;-81
2022/09/01 12:08:13;;;;;;;2.47;1.63;;;28.90;72.20;;;;;;5038491;28;20205;-81
2022/09/01 12:10:40;;;;;;;1.50;1.40;;;26.80;72.80;;;;;;5039423;28;20219;-80
2022/09/01 12:13:08;;;;;;;5.97;1.30;;;25.00;76.50;;;;;;5039099;28;20173;-81
2022/09/01 12:15:39;;;;;;;1.45;1.10;;;25.00;77.30;;;;;;5039822;28;20177;-82
2022/09/01 12:18:17;;;;;;;1.15;1.05;;;25.10;75.50;;;;;;5037767;28;20197;-82
2022/09/01 12:20:44;;;;;;;3.13;1.08;;;24.80;75.40;;;;;;5036317;28;20161;-82
2022/09/01 12:23:46;;;;;;;2.53;1.30;;;24.70;76.70;;;;;;5034735;28;20176;-82
2022/09/01 12:26:18;;;;;;;7.47;1.20;;;24.80;76.00;;;;;;4936796;29;20228;-82
2022/09/01 12:28:48;;;;;;;3.35;1.30;;;25.30;76.30;;;;;;5021694;28;20545;-80
2022/09/01 12:31:20;;;;;;;2.40;1.20;;;24.80;77.50;;;;;;5036550;28;20170;-82
2022/09/01 12:33:47;;;;;;;1.83;1.17;;;25.80;76.10;;;;;;5035238;28;20627;-82
2022/09/01 12:36:26;;;;;;;1.20;0.95;;;25.30;74.70;;;;;;5033835;28;20189;-82
2022/09/01 12:38:53;;;;;;;2.88;1.20;;;24.50;75.40;;;;;;5035305;28;20650;-83
2022/09/01 12:41:22;;;;;;;8.68;1.30;;;24.90;76.90;;;;;;5035394;28;20228;-83
2022/09/01 12:43:48;;;;;;;6.03;1.35;;;24.90;77.80;;;;;;5035549;28;20173;-82
2022/09/01 12:46:43;;;;;;;9.82;1.30;;;25.00;75.20;;;;;;5034457;28;20285;-81
2022/09/01 12:49:34;;;;;;;1.02;1.02;;;24.90;76.90;;;;;;5034693;28;20169;-81
2022/09/01 12:52:18;;;;;;;1.92;1.02;;;24.50;74.70;;;;;;5037620;28;20173;-81
2022/09/01 12:54:51;;;;;;;4.78;1.58;;;24.90;75.20;;;;;;5038393;28;20196;-82
2022/09/01 12:57:29;;;;;;;3.83;1.27;;;25.00;75.20;;;;;;5038427;28;20284;-83
2022/09/01 13:00:11;;;;;;;4.57;1.20;;;24.80;75.00;;;;;;5038274;28;20173;-82
2022/09/01 13:02:37;;;;;;;1.35;1.10;;;24.80;75.60;;;;;;5037283;28;20253;-83
2022/09/01 13:05:23;;;;;;;1.58;1.10;;;24.60;73.00;;;;;;5036343;28;20319;-83
2022/09/01 13:07:53;;;;;;;2.92;1.20;;;25.10;75.50;;;;;;5037599;28;20307;-81
2022/09/01 13:10:19;;;;;;;3.92;1.20;;;25.20;73.10;;;;;;5040203;28;20710;-83
2022/09/01 13:12:45;;;;;;;1.30;0.98;;;24.50;74.10;;;;;;5037923;28;20673;-82